createdAt,value
2023-05-05T00:00:10.119Z,13.08
2023-05-05T00:03:54.217Z,12.98
2023-05-05T00:07:36.976Z,12.97
2023-05-05T00:11:19.658Z,12.92
2023-05-05T00:15:02.388Z,12.83
2023-05-05T00:18:45.743Z,12.78
2023-05-05T00:22:29.912Z,12.76
2023-05-05T00:26:12.594Z,12.61
2023-05-05T00:29:55.307Z,12.54
2023-05-05T00:33:38.129Z,12.47
2023-05-05T00:37:20.841Z,12.52
2023-05-05T00:41:05.336Z,12.60
2023-05-05T00:44:48.015Z,12.64
2023-05-05T00:48:31.332Z,12.62
2023-05-05T00:52:14.131Z,12.60
2023-05-05T00:55:57.018Z,12.51
2023-05-05T00:59:41.973Z,12.38
2023-05-05T01:03:24.905Z,12.22
2023-05-05T01:07:13.107Z,12.18
2023-05-05T01:11:03.915Z,12.18
2023-05-05T01:14:52.923Z,12.19
2023-05-05T01:18:40.055Z,12.24
2023-05-05T01:22:26.072Z,12.24
2023-05-05T01:26:28.228Z,12.27
2023-05-05T01:30:21.771Z,12.26
2023-05-05T01:34:09.760Z,12.20
2023-05-05T01:37:55.603Z,12.19
2023-05-05T01:41:41.779Z,12.20
2023-05-05T01:45:27.361Z,12.20
2023-05-05T01:49:12.783Z,12.24
2023-05-05T01:52:56.537Z,12.17
2023-05-05T01:56:40.249Z,12.18
2023-05-05T02:00:25.088Z,12.15
2023-05-05T02:04:09.774Z,12.13
2023-05-05T02:07:56.750Z,12.08
2023-05-05T02:11:39.842Z,12.03
2023-05-05T02:15:23.452Z,11.97
2023-05-05T02:19:06.600Z,11.84
2023-05-05T02:22:49.700Z,11.62
2023-05-05T02:26:36.639Z,11.49
2023-05-05T02:30:20.961Z,11.50
2023-05-05T02:34:05.520Z,11.53
2023-05-05T02:38:02.501Z,11.65
2023-05-05T02:41:47.644Z,11.75
2023-05-05T02:45:30.472Z,11.80
2023-05-05T02:49:14.236Z,11.86
2023-05-05T02:52:57.136Z,11.94
2023-05-05T02:56:42.409Z,11.94
2023-05-05T03:00:38.338Z,11.87
2023-05-05T03:04:26.209Z,11.87
2023-05-05T03:08:12.021Z,11.82
2023-05-05T03:12:00.142Z,11.69
2023-05-05T03:15:48.034Z,11.56
2023-05-05T03:19:31.816Z,11.49
2023-05-05T03:23:14.656Z,11.43
2023-05-05T03:26:57.690Z,11.37
2023-05-05T03:30:40.682Z,11.35
2023-05-05T03:34:24.719Z,11.37
2023-05-05T03:38:07.365Z,11.52
2023-05-05T03:41:49.984Z,11.70
2023-05-05T03:45:33.142Z,11.82
2023-05-05T03:49:15.932Z,11.88
2023-05-05T03:52:59.909Z,11.86
2023-05-05T03:56:42.559Z,11.89
2023-05-05T04:00:25.216Z,11.94
2023-05-05T04:04:09.406Z,12.01
2023-05-05T04:07:52.120Z,12.06
2023-05-05T04:11:36.138Z,12.10
2023-05-05T04:15:18.824Z,12.13
2023-05-05T04:19:01.671Z,12.12
2023-05-05T04:22:44.430Z,12.11
2023-05-05T04:26:27.720Z,12.14
2023-05-05T04:30:12.757Z,12.16
2023-05-05T04:33:55.411Z,12.20
2023-05-05T04:37:38.139Z,12.23
2023-05-05T04:41:21.414Z,12.24
2023-05-05T04:45:04.173Z,12.33
2023-05-05T04:48:48.323Z,12.36
2023-05-05T04:52:31.023Z,12.44
2023-05-05T04:56:13.702Z,12.49
2023-05-05T04:59:56.420Z,12.63
2023-05-05T05:03:39.253Z,12.78
2023-05-05T05:07:23.482Z,12.87
2023-05-05T05:11:06.474Z,12.85
2023-05-05T05:14:49.211Z,12.85
2023-05-05T05:18:32.020Z,12.91
2023-05-05T05:22:14.753Z,12.97
2023-05-05T05:25:58.977Z,12.97
2023-05-05T05:29:41.672Z,12.99
2023-05-05T05:33:24.398Z,13.05
2023-05-05T05:37:07.095Z,13.14
2023-05-05T05:40:49.818Z,13.24
2023-05-05T05:44:34.848Z,13.35
2023-05-05T05:48:18.406Z,13.47
2023-05-05T05:52:01.078Z,13.60
2023-05-05T05:55:43.737Z,13.70
2023-05-05T05:59:26.703Z,13.80
2023-05-05T06:03:11.025Z,13.98
2023-05-05T06:06:53.909Z,14.09
2023-05-05T06:10:36.575Z,14.16
2023-05-05T06:14:20.146Z,14.21
2023-05-05T06:18:02.956Z,14.25
2023-05-05T06:21:47.010Z,14.28
2023-05-05T06:25:29.651Z,14.32
2023-05-05T06:29:14.517Z,14.43
2023-05-05T06:32:57.330Z,14.46
2023-05-05T06:36:40.065Z,14.56
2023-05-05T06:40:24.214Z,14.78
2023-05-05T06:44:06.942Z,14.93
2023-05-05T06:47:49.963Z,15.07
2023-05-05T06:51:32.785Z,15.18
2023-05-05T06:55:15.765Z,15.32
2023-05-05T06:58:59.792Z,15.42
2023-05-05T07:02:42.711Z,15.52
2023-05-05T07:06:25.534Z,15.65
2023-05-05T07:10:09.663Z,15.81
2023-05-05T07:13:52.731Z,15.92
2023-05-05T07:17:36.796Z,16.10
2023-05-05T07:21:19.802Z,16.34
2023-05-05T07:25:03.105Z,16.55
2023-05-05T07:28:46.353Z,16.94
2023-05-05T07:32:29.128Z,17.10
2023-05-05T07:36:13.581Z,17.20
2023-05-05T07:39:56.303Z,17.37
2023-05-05T07:43:42.296Z,17.47
2023-05-05T07:47:26.760Z,17.54
2023-05-05T07:51:09.593Z,17.58
2023-05-05T07:54:53.679Z,17.67
2023-05-05T07:58:36.533Z,17.75
2023-05-05T08:02:19.371Z,17.86
2023-05-05T08:06:08.445Z,18.04
2023-05-05T08:09:51.129Z,18.18
2023-05-05T08:13:35.482Z,18.30
2023-05-05T08:17:20.826Z,18.62
2023-05-05T08:21:03.598Z,18.69
2023-05-05T08:24:46.313Z,18.86
2023-05-05T08:28:29.919Z,18.95
2023-05-05T08:32:16.187Z,19.07
2023-05-05T08:35:59.018Z,19.04
2023-05-05T08:39:41.813Z,19.12
2023-05-05T08:43:24.560Z,19.26
2023-05-05T08:47:07.396Z,19.27
2023-05-05T08:50:57.264Z,19.38
2023-05-05T08:54:44.949Z,19.37
2023-05-05T08:58:29.020Z,19.40
2023-05-05T09:02:12.936Z,19.50
2023-05-05T09:05:57.307Z,19.44
2023-05-05T09:09:40.023Z,19.64
2023-05-05T09:13:22.836Z,19.85
2023-05-05T09:17:06.123Z,19.85
2023-05-05T09:20:49.061Z,20.05
2023-05-05T09:24:33.334Z,20.19
2023-05-05T09:28:18.269Z,20.16
2023-05-05T09:32:05.681Z,20.22
2023-05-05T09:35:50.318Z,20.25
2023-05-05T09:39:34.421Z,20.22
2023-05-05T09:43:17.919Z,20.18
2023-05-05T09:47:00.705Z,20.18
2023-05-05T09:50:44.569Z,20.19
2023-05-05T09:54:28.483Z,20.18
2023-05-05T09:58:23.618Z,20.26
2023-05-05T10:02:12.679Z,20.32
2023-05-05T10:05:56.476Z,20.41
2023-05-05T10:09:39.354Z,20.62
2023-05-05T10:13:24.804Z,20.62
2023-05-05T10:17:08.290Z,20.70
2023-05-05T10:20:58.618Z,20.79
2023-05-05T10:24:44.466Z,20.69
2023-05-05T10:28:33.719Z,21.01
2023-05-05T10:32:50.973Z,21.00
2023-05-05T10:36:26.447Z,21.06
2023-05-05T10:40:10.890Z,21.20
2023-05-05T10:43:57.167Z,21.35
2023-05-05T10:47:40.804Z,21.44
2023-05-05T10:51:39.457Z,21.75
2023-05-05T10:55:29.268Z,21.79
2023-05-05T11:03:30.518Z,21.78
2023-05-05T11:07:23.717Z,22.15
2023-05-05T11:11:07.051Z,22.21
2023-05-05T11:15:29.683Z,22.11
2023-05-05T11:19:48.152Z,22.21
2023-05-05T11:23:31.307Z,22.34
2023-05-05T11:27:14.103Z,22.27
2023-05-05T11:31:23.133Z,22.20
2023-05-05T11:35:07.177Z,22.34
2023-05-05T11:38:57.972Z,22.47
2023-05-05T11:42:40.778Z,22.42
2023-05-05T11:46:24.889Z,22.65
2023-05-05T11:50:18.697Z,22.75
2023-05-05T11:54:01.543Z,22.75
2023-05-05T11:57:44.316Z,22.76
2023-05-05T12:01:28.331Z,22.93
2023-05-05T12:05:11.054Z,23.12
2023-05-05T12:08:53.804Z,23.45
2023-05-05T12:12:38.149Z,23.65
2023-05-05T12:16:21.443Z,23.68
2023-05-05T12:20:06.662Z,23.72
2023-05-05T12:23:49.661Z,23.92
2023-05-05T12:27:32.476Z,23.92
2023-05-05T12:31:15.947Z,24.01
2023-05-05T12:34:58.704Z,24.38
2023-05-05T12:38:43.051Z,24.55
2023-05-05T12:42:25.989Z,24.68
2023-05-05T12:46:11.790Z,24.71
2023-05-05T12:49:54.640Z,24.72
2023-05-05T12:53:37.376Z,24.73
2023-05-05T12:57:21.781Z,24.76
2023-05-05T13:01:11.286Z,24.87
2023-05-05T13:04:54.925Z,24.92
2023-05-05T13:08:43.613Z,24.99
2023-05-05T13:12:27.660Z,25.03
2023-05-05T13:16:10.485Z,24.99
2023-05-05T13:19:53.128Z,25.03
2023-05-05T13:23:35.940Z,25.05
2023-05-05T13:27:18.636Z,24.91
2023-05-05T13:31:02.738Z,24.89
2023-05-05T13:34:45.345Z,25.01
2023-05-05T13:38:28.033Z,25.19
2023-05-05T13:42:10.993Z,25.08
2023-05-05T13:45:58.668Z,25.10
2023-05-05T13:49:50.036Z,25.11
2023-05-05T13:53:32.953Z,25.19
2023-05-05T13:57:15.654Z,25.30
2023-05-05T14:00:58.322Z,25.33
2023-05-05T14:04:41.403Z,25.26
2023-05-05T14:08:28.543Z,25.18
2023-05-05T14:12:11.245Z,24.94
2023-05-05T14:15:53.902Z,24.72
2023-05-05T14:19:36.589Z,24.57
2023-05-05T14:23:19.266Z,24.50
2023-05-05T14:27:04.407Z,24.49
2023-05-05T14:30:49.688Z,24.65
2023-05-05T14:34:32.459Z,24.80
2023-05-05T14:38:15.275Z,25.08
2023-05-05T14:41:58.082Z,25.31
2023-05-05T14:45:42.199Z,25.42
2023-05-05T14:49:25.219Z,25.45
2023-05-05T14:53:08.595Z,25.56
2023-05-05T14:56:51.421Z,25.75
2023-05-05T15:00:34.152Z,25.92
2023-05-05T15:04:18.378Z,26.15
2023-05-05T15:08:01.032Z,26.27
2023-05-05T15:11:45.250Z,26.41
2023-05-05T15:15:28.022Z,26.33
2023-05-05T15:19:10.749Z,26.20
2023-05-05T15:22:54.963Z,25.91
2023-05-05T15:26:37.729Z,25.72
2023-05-05T15:30:20.632Z,25.53
2023-05-05T15:34:03.430Z,25.42
2023-05-05T15:37:46.226Z,25.43
2023-05-05T15:41:30.301Z,26.16
2023-05-05T15:45:13.166Z,26.44
2023-05-05T15:48:55.850Z,26.33
2023-05-05T15:52:38.583Z,26.47
2023-05-05T15:56:21.397Z,27.26
2023-05-05T16:00:06.488Z,27.55
2023-05-05T16:03:49.265Z,27.43
2023-05-05T16:07:31.986Z,27.43
2023-05-05T16:11:14.641Z,27.44
2023-05-05T16:14:57.430Z,27.26
2023-05-05T16:18:41.415Z,27.17
2023-05-05T16:22:24.091Z,27.41
2023-05-05T16:26:09.584Z,27.84
2023-05-05T16:29:53.301Z,28.33
2023-05-05T16:33:40.516Z,28.49
2023-05-05T16:37:24.601Z,28.12
2023-05-05T16:41:08.178Z,27.66
2023-05-05T16:44:51.002Z,27.06
2023-05-05T16:48:33.670Z,26.64
2023-05-05T16:52:16.371Z,26.17
2023-05-05T16:56:00.752Z,25.84
2023-05-05T16:59:43.440Z,25.56
2023-05-05T17:03:26.427Z,25.22
2023-05-05T17:07:09.119Z,24.94
2023-05-05T17:10:51.808Z,24.60
2023-05-05T17:14:35.882Z,24.25
2023-05-05T17:18:20.108Z,24.07
2023-05-05T17:22:02.995Z,23.88
2023-05-05T17:25:45.752Z,23.66
2023-05-05T17:29:28.518Z,23.46
2023-05-05T17:33:12.564Z,23.22
2023-05-05T17:36:55.212Z,23.01
2023-05-05T17:40:37.906Z,22.76
2023-05-05T17:44:20.669Z,22.59
2023-05-05T17:48:03.347Z,22.45
2023-05-05T17:51:47.445Z,22.28
2023-05-05T17:55:30.171Z,22.15
2023-05-05T17:59:12.892Z,21.95
2023-05-05T18:02:55.732Z,21.78
2023-05-05T18:06:38.474Z,21.58
2023-05-05T18:10:23.282Z,21.42
2023-05-05T18:14:05.933Z,21.28
2023-05-05T18:17:48.568Z,21.17
2023-05-05T18:21:31.983Z,21.11
2023-05-05T18:25:14.682Z,21.03
2023-05-05T18:28:58.891Z,20.95
2023-05-05T18:32:41.669Z,20.87
2023-05-05T18:36:24.515Z,20.80
2023-05-05T18:40:09.901Z,20.74
2023-05-05T18:43:52.690Z,20.67
2023-05-05T18:47:38.628Z,20.63
2023-05-05T18:51:21.395Z,20.57
2023-05-05T18:55:04.532Z,20.26
2023-05-05T18:58:47.545Z,18.42
2023-05-05T19:02:30.256Z,12.82
2023-05-05T19:06:14.332Z,11.11
2023-05-05T19:09:57.007Z,10.42
2023-05-05T19:13:40.686Z,10.07
2023-05-05T19:17:23.467Z,10.10
2023-05-05T19:21:06.203Z,9.95
2023-05-05T19:24:50.247Z,9.92
2023-05-05T19:28:32.986Z,10.03
2023-05-05T19:32:16.005Z,10.26
2023-05-05T19:35:58.724Z,10.45
2023-05-05T19:39:43.301Z,10.60
2023-05-05T19:43:27.369Z,10.89
2023-05-05T19:47:10.986Z,11.05
2023-05-05T19:50:56.911Z,11.07
2023-05-05T19:54:39.664Z,11.03
2023-05-05T19:58:22.435Z,11.07
2023-05-05T20:02:06.528Z,11.06
2023-05-05T20:05:49.208Z,11.08
2023-05-05T20:09:31.917Z,11.07
2023-05-05T20:13:14.748Z,11.13
2023-05-05T20:16:57.496Z,11.13
2023-05-05T20:20:42.130Z,11.18
2023-05-05T20:24:24.892Z,11.25
2023-05-05T20:28:07.709Z,11.32
2023-05-05T20:31:50.463Z,11.34
2023-05-05T20:35:33.261Z,11.39
2023-05-05T20:39:17.294Z,11.46
2023-05-05T20:43:00.230Z,11.45
2023-05-05T20:46:43.024Z,11.50
2023-05-05T20:50:25.720Z,11.57
2023-05-05T20:54:09.990Z,11.59
2023-05-05T20:57:54.079Z,11.63
2023-05-05T21:01:36.821Z,11.68
2023-05-05T21:05:19.844Z,11.70
2023-05-05T21:09:02.514Z,11.76
2023-05-05T21:12:45.181Z,11.80
2023-05-05T21:16:29.257Z,11.86
2023-05-05T21:20:13.290Z,11.88
2023-05-05T21:23:57.637Z,11.91
2023-05-05T21:27:40.669Z,11.90
2023-05-05T21:31:23.395Z,11.89
2023-05-05T21:35:09.504Z,11.88
2023-05-05T21:38:55.203Z,11.93
2023-05-05T21:42:37.903Z,11.92
2023-05-05T21:46:20.617Z,11.95
2023-05-05T21:50:03.587Z,11.95
2023-05-05T21:53:47.694Z,11.96
2023-05-05T21:57:30.585Z,11.97
2023-05-05T22:01:13.365Z,12.06
2023-05-05T22:04:56.129Z,12.04
2023-05-05T22:08:38.863Z,12.07
2023-05-05T22:12:22.911Z,12.04
2023-05-05T22:16:05.820Z,12.07
2023-05-05T22:19:48.495Z,12.12
2023-05-05T22:23:31.385Z,12.15
2023-05-05T22:27:14.031Z,12.16
2023-05-05T22:30:58.088Z,12.19
2023-05-05T22:34:40.884Z,12.20
2023-05-05T22:38:23.686Z,12.19
2023-05-05T22:42:07.023Z,12.19
2023-05-05T22:45:54.970Z,12.16
2023-05-05T22:49:40.736Z,12.17
2023-05-05T22:53:24.039Z,12.15
2023-05-05T22:57:08.045Z,12.14
2023-05-05T23:00:55.042Z,12.15
2023-05-05T23:04:39.295Z,12.19
2023-05-05T23:08:24.012Z,12.19
2023-05-05T23:12:07.005Z,12.18
2023-05-05T23:15:50.020Z,12.19
2023-05-05T23:19:33.117Z,12.19
2023-05-05T23:23:20.608Z,12.21
2023-05-05T23:27:03.547Z,12.24
2023-05-05T23:30:49.624Z,12.28
2023-05-05T23:34:32.642Z,12.36
2023-05-05T23:38:16.196Z,12.34
2023-05-05T23:42:01.331Z,12.33
2023-05-05T23:45:45.050Z,12.34
2023-05-05T23:49:29.375Z,12.35
2023-05-05T23:53:12.222Z,12.35
2023-05-05T23:56:55.121Z,12.45
